sensor_id;sensor_type;location;lat;lon;timestamp;temperature;humidity
19536;HTU21D;9913;51.168;4.124;2023-08-12T00:00:09;20.90;96.18
19536;HTU21D;9913;51.168;4.124;2023-08-12T00:02:44;20.74;96.48
19536;HTU21D;9913;51.168;4.124;2023-08-12T00:05:14;20.73;96.65
19536;HTU21D;9913;51.168;4.124;2023-08-12T00:07:44;20.75;96.43
19536;HTU21D;9913;51.168;4.124;2023-08-12T00:10:13;20.70;96.72
19536;HTU21D;9913;51.168;4.124;2023-08-12T00:12:43;20.56;97.14
19536;HTU21D;9913;51.168;4.124;2023-08-12T00:15:14;20.58;97.23
19536;HTU21D;9913;51.168;4.124;2023-08-12T00:17:43;20.65;97.43
19536;HTU21D;9913;51.168;4.124;2023-08-12T00:20:14;20.57;97.45
19536;HTU21D;9913;51.168;4.124;2023-08-12T00:22:43;20.61;97.43
19536;HTU21D;9913;51.168;4.124;2023-08-12T00:25:13;20.64;97.42
19536;HTU21D;9913;51.168;4.124;2023-08-12T00:27:42;20.63;97.46
19536;HTU21D;9913;51.168;4.124;2023-08-12T00:30:11;20.59;97.50
19536;HTU21D;9913;51.168;4.124;2023-08-12T00:32:43;20.62;97.72
19536;HTU21D;9913;51.168;4.124;2023-08-12T00:35:12;20.68;97.63
19536;HTU21D;9913;51.168;4.124;2023-08-12T00:37:41;20.66;97.75
19536;HTU21D;9913;51.168;4.124;2023-08-12T00:40:11;20.64;97.75
19536;HTU21D;9913;51.168;4.124;2023-08-12T00:42:40;20.60;97.85
19536;HTU21D;9913;51.168;4.124;2023-08-12T00:45:10;20.61;97.89
19536;HTU21D;9913;51.168;4.124;2023-08-12T00:47:43;20.49;97.97
19536;HTU21D;9913;51.168;4.124;2023-08-12T00:50:14;20.51;97.92
19536;HTU21D;9913;51.168;4.124;2023-08-12T00:52:44;20.46;97.89
19536;HTU21D;9913;51.168;4.124;2023-08-12T00:55:13;20.53;97.88
19536;HTU21D;9913;51.168;4.124;2023-08-12T00:57:42;20.46;98.08
19536;HTU21D;9913;51.168;4.124;2023-08-12T01:00:13;20.47;98.00
19536;HTU21D;9913;51.168;4.124;2023-08-12T01:02:44;20.47;98.01
19536;HTU21D;9913;51.168;4.124;2023-08-12T01:05:16;20.54;97.96
19536;HTU21D;9913;51.168;4.124;2023-08-12T01:07:45;20.58;97.84
19536;HTU21D;9913;51.168;4.124;2023-08-12T01:10:16;20.50;97.85
19536;HTU21D;9913;51.168;4.124;2023-08-12T01:12:50;20.50;97.96
19536;HTU21D;9913;51.168;4.124;2023-08-12T01:15:24;20.45;97.91
19536;HTU21D;9913;51.168;4.124;2023-08-12T01:17:56;20.44;98.00
19536;HTU21D;9913;51.168;4.124;2023-08-12T01:20:28;20.48;97.84
19536;HTU21D;9913;51.168;4.124;2023-08-12T01:23:12;20.54;98.03
19536;HTU21D;9913;51.168;4.124;2023-08-12T01:25:41;20.64;97.87
19536;HTU21D;9913;51.168;4.124;2023-08-12T01:28:11;20.56;98.15
19536;HTU21D;9913;51.168;4.124;2023-08-12T01:30:46;20.44;98.04
19536;HTU21D;9913;51.168;4.124;2023-08-12T01:33:21;20.49;97.95
19536;HTU21D;9913;51.168;4.124;2023-08-12T01:35:56;20.59;98.43
19536;HTU21D;9913;51.168;4.124;2023-08-12T01:38:31;20.34;98.72
19536;HTU21D;9913;51.168;4.124;2023-08-12T01:41:01;20.26;99.05
19536;HTU21D;9913;51.168;4.124;2023-08-12T01:43:31;20.17;99.03
19536;HTU21D;9913;51.168;4.124;2023-08-12T01:46:01;20.24;99.21
19536;HTU21D;9913;51.168;4.124;2023-08-12T01:48:30;20.15;98.93
19536;HTU21D;9913;51.168;4.124;2023-08-12T01:50:59;20.18;99.36
19536;HTU21D;9913;51.168;4.124;2023-08-12T01:53:30;20.20;98.91
19536;HTU21D;9913;51.168;4.124;2023-08-12T01:55:59;20.17;99.29
19536;HTU21D;9913;51.168;4.124;2023-08-12T01:58:28;20.02;99.22
19536;HTU21D;9913;51.168;4.124;2023-08-12T02:00:57;19.98;99.11
19536;HTU21D;9913;51.168;4.124;2023-08-12T02:03:26;20.03;99.22
19536;HTU21D;9913;51.168;4.124;2023-08-12T02:05:58;19.96;99.42
19536;HTU21D;9913;51.168;4.124;2023-08-12T02:08:30;19.81;99.18
19536;HTU21D;9913;51.168;4.124;2023-08-12T02:10:59;19.82;99.23
19536;HTU21D;9913;51.168;4.124;2023-08-12T02:13:29;19.91;99.16
19536;HTU21D;9913;51.168;4.124;2023-08-12T02:15:59;19.91;99.15
19536;HTU21D;9913;51.168;4.124;2023-08-12T02:18:28;19.99;99.19
19536;HTU21D;9913;51.168;4.124;2023-08-12T02:20:57;19.88;98.97
19536;HTU21D;9913;51.168;4.124;2023-08-12T02:23:26;19.82;99.31
19536;HTU21D;9913;51.168;4.124;2023-08-12T02:25:57;19.94;99.26
19536;HTU21D;9913;51.168;4.124;2023-08-12T02:28:26;19.82;99.05
19536;HTU21D;9913;51.168;4.124;2023-08-12T02:30:55;19.91;99.25
19536;HTU21D;9913;51.168;4.124;2023-08-12T02:33:24;19.85;99.00
19536;HTU21D;9913;51.168;4.124;2023-08-12T02:35:54;19.87;99.25
19536;HTU21D;9913;51.168;4.124;2023-08-12T02:38:24;19.88;99.45
19536;HTU21D;9913;51.168;4.124;2023-08-12T02:40:56;19.96;99.49
19536;HTU21D;9913;51.168;4.124;2023-08-12T02:43:28;19.87;99.47
19536;HTU21D;9913;51.168;4.124;2023-08-12T02:45:57;20.01;99.47
19536;HTU21D;9913;51.168;4.124;2023-08-12T02:48:27;19.95;99.56
19536;HTU21D;9913;51.168;4.124;2023-08-12T02:50:56;20.01;99.61
19536;HTU21D;9913;51.168;4.124;2023-08-12T02:53:25;19.96;99.74
19536;HTU21D;9913;51.168;4.124;2023-08-12T02:55:54;19.96;100.04
19536;HTU21D;9913;51.168;4.124;2023-08-12T02:58:25;19.99;100.41
19536;HTU21D;9913;51.168;4.124;2023-08-12T03:00:54;20.02;100.53
19536;HTU21D;9913;51.168;4.124;2023-08-12T03:03:24;19.91;100.50
19536;HTU21D;9913;51.168;4.124;2023-08-12T03:05:53;19.77;100.43
19536;HTU21D;9913;51.168;4.124;2023-08-12T03:08:22;19.89;101.12
19536;HTU21D;9913;51.168;4.124;2023-08-12T03:10:58;19.77;101.21
19536;HTU21D;9913;51.168;4.124;2023-08-12T03:13:30;19.77;101.40
19536;HTU21D;9913;51.168;4.124;2023-08-12T03:15:59;19.71;100.88
19536;HTU21D;9913;51.168;4.124;2023-08-12T03:18:29;19.69;101.51
19536;HTU21D;9913;51.168;4.124;2023-08-12T03:20:57;19.79;101.80
19536;HTU21D;9913;51.168;4.124;2023-08-12T03:23:27;19.86;102.29
19536;HTU21D;9913;51.168;4.124;2023-08-12T03:25:57;19.83;102.51
19536;HTU21D;9913;51.168;4.124;2023-08-12T03:28:25;19.88;102.80
19536;HTU21D;9913;51.168;4.124;2023-08-12T03:30:57;19.91;103.04
19536;HTU21D;9913;51.168;4.124;2023-08-12T03:33:26;19.81;102.67
19536;HTU21D;9913;51.168;4.124;2023-08-12T03:35:55;19.88;102.87
19536;HTU21D;9913;51.168;4.124;2023-08-12T03:38:24;19.65;102.39
19536;HTU21D;9913;51.168;4.124;2023-08-12T03:40:53;19.68;101.99
19536;HTU21D;9913;51.168;4.124;2023-08-12T03:43:24;19.80;102.96
19536;HTU21D;9913;51.168;4.124;2023-08-12T03:45:53;19.61;102.26
19536;HTU21D;9913;51.168;4.124;2023-08-12T03:48:24;19.59;102.06
19536;HTU21D;9913;51.168;4.124;2023-08-12T03:50:53;19.69;102.60
19536;HTU21D;9913;51.168;4.124;2023-08-12T03:53:21;19.52;102.15
19536;HTU21D;9913;51.168;4.124;2023-08-12T03:55:51;19.69;102.93
19536;HTU21D;9913;51.168;4.124;2023-08-12T03:58:20;19.67;102.84
19536;HTU21D;9913;51.168;4.124;2023-08-12T04:00:50;19.53;101.93
19536;HTU21D;9913;51.168;4.124;2023-08-12T04:03:19;19.48;102.43
19536;HTU21D;9913;51.168;4.124;2023-08-12T04:05:50;19.56;102.54
19536;HTU21D;9913;51.168;4.124;2023-08-12T04:08:22;19.50;102.32
19536;HTU21D;9913;51.168;4.124;2023-08-12T04:10:52;19.50;102.06
19536;HTU21D;9913;51.168;4.124;2023-08-12T04:13:21;19.48;102.16
19536;HTU21D;9913;51.168;4.124;2023-08-12T04:15:50;19.41;102.02
19536;HTU21D;9913;51.168;4.124;2023-08-12T04:18:20;19.33;101.42
19536;HTU21D;9913;51.168;4.124;2023-08-12T04:20:52;19.47;101.51
19536;HTU21D;9913;51.168;4.124;2023-08-12T04:23:23;19.37;101.63
19536;HTU21D;9913;51.168;4.124;2023-08-12T04:25:52;19.43;101.78
19536;HTU21D;9913;51.168;4.124;2023-08-12T04:28:25;19.29;101.36
19536;HTU21D;9913;51.168;4.124;2023-08-12T04:30:54;19.50;102.02
19536;HTU21D;9913;51.168;4.124;2023-08-12T04:33:25;19.43;102.18
19536;HTU21D;9913;51.168;4.124;2023-08-12T04:35:55;19.45;102.07
19536;HTU21D;9913;51.168;4.124;2023-08-12T04:38:25;19.35;101.87
19536;HTU21D;9913;51.168;4.124;2023-08-12T04:40:56;19.40;102.01
19536;HTU21D;9913;51.168;4.124;2023-08-12T04:43:29;19.37;102.52
19536;HTU21D;9913;51.168;4.124;2023-08-12T04:45:59;19.37;102.29
19536;HTU21D;9913;51.168;4.124;2023-08-12T04:48:30;19.39;102.29
19536;HTU21D;9913;51.168;4.124;2023-08-12T04:51:02;19.30;102.52
19536;HTU21D;9913;51.168;4.124;2023-08-12T04:53:33;19.42;103.18
19536;HTU21D;9913;51.168;4.124;2023-08-12T04:56:03;19.36;102.67
19536;HTU21D;9913;51.168;4.124;2023-08-12T04:58:32;19.29;102.62
19536;HTU21D;9913;51.168;4.124;2023-08-12T05:01:01;19.48;103.13
19536;HTU21D;9913;51.168;4.124;2023-08-12T05:03:31;19.42;103.02
19536;HTU21D;9913;51.168;4.124;2023-08-12T05:06:02;19.44;102.92
19536;HTU21D;9913;51.168;4.124;2023-08-12T05:08:36;19.43;103.02
19536;HTU21D;9913;51.168;4.124;2023-08-12T05:11:06;19.36;102.87
19536;HTU21D;9913;51.168;4.124;2023-08-12T05:13:35;19.46;103.44
19536;HTU21D;9913;51.168;4.124;2023-08-12T05:16:05;19.48;103.23
19536;HTU21D;9913;51.168;4.124;2023-08-12T05:18:34;19.51;103.29
19536;HTU21D;9913;51.168;4.124;2023-08-12T05:21:04;19.52;103.23
19536;HTU21D;9913;51.168;4.124;2023-08-12T05:23:33;19.52;103.15
19536;HTU21D;9913;51.168;4.124;2023-08-12T05:26:03;19.54;103.60
19536;HTU21D;9913;51.168;4.124;2023-08-12T05:28:32;19.51;103.45
19536;HTU21D;9913;51.168;4.124;2023-08-12T05:31:01;19.55;103.32
19536;HTU21D;9913;51.168;4.124;2023-08-12T05:33:30;19.68;103.71
19536;HTU21D;9913;51.168;4.124;2023-08-12T05:35:59;19.65;103.89
19536;HTU21D;9913;51.168;4.124;2023-08-12T05:38:29;19.68;104.02
19536;HTU21D;9913;51.168;4.124;2023-08-12T05:40:58;19.68;103.83
19536;HTU21D;9913;51.168;4.124;2023-08-12T05:43:27;19.71;103.38
19536;HTU21D;9913;51.168;4.124;2023-08-12T05:45:56;19.57;103.31
19536;HTU21D;9913;51.168;4.124;2023-08-12T05:48:25;19.61;103.59
19536;HTU21D;9913;51.168;4.124;2023-08-12T05:50:54;19.56;103.92
19536;HTU21D;9913;51.168;4.124;2023-08-12T05:53:23;19.67;104.56
19536;HTU21D;9913;51.168;4.124;2023-08-12T05:55:53;19.58;104.07
19536;HTU21D;9913;51.168;4.124;2023-08-12T05:58:22;19.69;103.87
19536;HTU21D;9913;51.168;4.124;2023-08-12T06:00:51;19.68;103.68
19536;HTU21D;9913;51.168;4.124;2023-08-12T06:03:20;19.67;103.98
19536;HTU21D;9913;51.168;4.124;2023-08-12T06:05:49;19.71;103.79
19536;HTU21D;9913;51.168;4.124;2023-08-12T06:08:17;19.66;103.65
19536;HTU21D;9913;51.168;4.124;2023-08-12T06:10:46;19.72;103.70
19536;HTU21D;9913;51.168;4.124;2023-08-12T06:13:17;19.72;103.24
19536;HTU21D;9913;51.168;4.124;2023-08-12T06:15:46;19.74;102.89
19536;HTU21D;9913;51.168;4.124;2023-08-12T06:18:15;19.75;102.80
19536;HTU21D;9913;51.168;4.124;2023-08-12T06:20:44;19.73;102.10
19536;HTU21D;9913;51.168;4.124;2023-08-12T06:23:12;19.79;102.44
19536;HTU21D;9913;51.168;4.124;2023-08-12T06:25:41;19.76;102.31
19536;HTU21D;9913;51.168;4.124;2023-08-12T06:28:11;19.79;102.79
19536;HTU21D;9913;51.168;4.124;2023-08-12T06:30:44;19.68;103.31
19536;HTU21D;9913;51.168;4.124;2023-08-12T06:33:14;19.43;103.09
19536;HTU21D;9913;51.168;4.124;2023-08-12T06:35:44;19.11;101.57
19536;HTU21D;9913;51.168;4.124;2023-08-12T06:38:17;18.89;101.52
19536;HTU21D;9913;51.168;4.124;2023-08-12T06:40:47;19.06;102.31
19536;HTU21D;9913;51.168;4.124;2023-08-12T06:43:16;18.91;102.11
19536;HTU21D;9913;51.168;4.124;2023-08-12T06:45:46;18.71;101.31
19536;HTU21D;9913;51.168;4.124;2023-08-12T06:48:15;18.70;101.98
19536;HTU21D;9913;51.168;4.124;2023-08-12T06:50:44;18.82;102.51
19536;HTU21D;9913;51.168;4.124;2023-08-12T06:53:13;18.80;102.73
19536;HTU21D;9913;51.168;4.124;2023-08-12T06:55:44;18.64;102.16
19536;HTU21D;9913;51.168;4.124;2023-08-12T06:58:13;18.65;102.54
19536;HTU21D;9913;51.168;4.124;2023-08-12T07:00:42;18.59;102.36
19536;HTU21D;9913;51.168;4.124;2023-08-12T07:03:12;18.62;102.55
19536;HTU21D;9913;51.168;4.124;2023-08-12T07:05:41;18.34;101.18
19536;HTU21D;9913;51.168;4.124;2023-08-12T07:08:10;18.29;101.65
19536;HTU21D;9913;51.168;4.124;2023-08-12T07:10:39;18.41;102.03
19536;HTU21D;9913;51.168;4.124;2023-08-12T07:13:08;18.46;102.33
19536;HTU21D;9913;51.168;4.124;2023-08-12T07:15:37;18.20;100.94
19536;HTU21D;9913;51.168;4.124;2023-08-12T07:18:05;18.21;100.93
19536;HTU21D;9913;51.168;4.124;2023-08-12T07:20:36;18.19;100.87
19536;HTU21D;9913;51.168;4.124;2023-08-12T07:23:05;18.29;100.95
19536;HTU21D;9913;51.168;4.124;2023-08-12T07:25:34;18.07;100.10
19536;HTU21D;9913;51.168;4.124;2023-08-12T07:28:03;18.17;100.43
19536;HTU21D;9913;51.168;4.124;2023-08-12T07:30:34;18.37;100.57
19536;HTU21D;9913;51.168;4.124;2023-08-12T07:33:04;18.29;100.04
19536;HTU21D;9913;51.168;4.124;2023-08-12T07:35:33;18.46;100.09
19536;HTU21D;9913;51.168;4.124;2023-08-12T07:38:04;18.78;100.22
19536;HTU21D;9913;51.168;4.124;2023-08-12T07:40:33;18.48;99.75
19536;HTU21D;9913;51.168;4.124;2023-08-12T07:43:02;18.53;100.05
19536;HTU21D;9913;51.168;4.124;2023-08-12T07:45:31;18.68;99.71
19536;HTU21D;9913;51.168;4.124;2023-08-12T07:48:00;18.79;99.77
19536;HTU21D;9913;51.168;4.124;2023-08-12T07:50:29;18.61;99.85
19536;HTU21D;9913;51.168;4.124;2023-08-12T07:52:58;18.55;99.76
19536;HTU21D;9913;51.168;4.124;2023-08-12T07:55:29;18.40;99.84
19536;HTU21D;9913;51.168;4.124;2023-08-12T07:57:58;18.71;99.64
19536;HTU21D;9913;51.168;4.124;2023-08-12T08:00:27;18.81;100.07
19536;HTU21D;9913;51.168;4.124;2023-08-12T08:02:56;18.77;100.46
19536;HTU21D;9913;51.168;4.124;2023-08-12T08:05:25;18.76;100.00
19536;HTU21D;9913;51.168;4.124;2023-08-12T08:07:54;18.57;100.12
19536;HTU21D;9913;51.168;4.124;2023-08-12T08:10:23;18.52;100.14
19536;HTU21D;9913;51.168;4.124;2023-08-12T08:12:54;18.77;100.07
19536;HTU21D;9913;51.168;4.124;2023-08-12T08:15:22;18.67;100.36
19536;HTU21D;9913;51.168;4.124;2023-08-12T08:17:51;18.78;100.29
19536;HTU21D;9913;51.168;4.124;2023-08-12T08:20:21;18.81;100.42
19536;HTU21D;9913;51.168;4.124;2023-08-12T08:22:50;19.37;100.19
19536;HTU21D;9913;51.168;4.124;2023-08-12T08:25:22;19.50;100.43
19536;HTU21D;9913;51.168;4.124;2023-08-12T08:27:51;19.72;100.45
19536;HTU21D;9913;51.168;4.124;2023-08-12T08:30:21;19.59;100.35
19536;HTU21D;9913;51.168;4.124;2023-08-12T08:32:52;19.58;100.12
19536;HTU21D;9913;51.168;4.124;2023-08-12T08:35:21;19.52;100.47
19536;HTU21D;9913;51.168;4.124;2023-08-12T08:37:50;19.84;101.47
19536;HTU21D;9913;51.168;4.124;2023-08-12T08:40:19;20.12;101.49
19536;HTU21D;9913;51.168;4.124;2023-08-12T08:42:51;20.10;101.41
19536;HTU21D;9913;51.168;4.124;2023-08-12T08:45:24;19.83;100.85
19536;HTU21D;9913;51.168;4.124;2023-08-12T08:47:54;19.87;101.04
19536;HTU21D;9913;51.168;4.124;2023-08-12T08:50:24;19.58;100.90
19536;HTU21D;9913;51.168;4.124;2023-08-12T08:52:56;19.60;100.83
19536;HTU21D;9913;51.168;4.124;2023-08-12T08:55:25;19.50;101.31
19536;HTU21D;9913;51.168;4.124;2023-08-12T08:57:55;19.57;102.60
19536;HTU21D;9913;51.168;4.124;2023-08-12T09:00:29;19.56;102.67
19536;HTU21D;9913;51.168;4.124;2023-08-12T09:02:58;19.83;100.67
19536;HTU21D;9913;51.168;4.124;2023-08-12T09:05:32;19.80;100.74
19536;HTU21D;9913;51.168;4.124;2023-08-12T09:08:08;19.75;101.05
19536;HTU21D;9913;51.168;4.124;2023-08-12T09:10:39;19.60;101.57
19536;HTU21D;9913;51.168;4.124;2023-08-12T09:13:09;19.77;102.17
19536;HTU21D;9913;51.168;4.124;2023-08-12T09:15:40;19.67;102.44
19536;HTU21D;9913;51.168;4.124;2023-08-12T09:18:10;19.86;101.12
19536;HTU21D;9913;51.168;4.124;2023-08-12T09:20:39;20.06;100.77
19536;HTU21D;9913;51.168;4.124;2023-08-12T09:23:08;20.31;99.95
19536;HTU21D;9913;51.168;4.124;2023-08-12T09:25:41;20.16;101.15
19536;HTU21D;9913;51.168;4.124;2023-08-12T09:28:12;19.88;101.39
19536;HTU21D;9913;51.168;4.124;2023-08-12T09:30:50;19.84;100.67
19536;HTU21D;9913;51.168;4.124;2023-08-12T09:33:24;19.99;100.80
19536;HTU21D;9913;51.168;4.124;2023-08-12T09:35:54;20.09;99.90
19536;HTU21D;9913;51.168;4.124;2023-08-12T09:38:25;20.28;100.82
19536;HTU21D;9913;51.168;4.124;2023-08-12T09:40:56;20.34;100.77
19536;HTU21D;9913;51.168;4.124;2023-08-12T09:43:27;20.56;101.30
19536;HTU21D;9913;51.168;4.124;2023-08-12T09:45:59;20.58;100.91
19536;HTU21D;9913;51.168;4.124;2023-08-12T09:48:28;20.39;101.61
19536;HTU21D;9913;51.168;4.124;2023-08-12T09:50:57;20.54;100.51
19536;HTU21D;9913;51.168;4.124;2023-08-12T09:53:27;20.72;100.90
19536;HTU21D;9913;51.168;4.124;2023-08-12T09:55:59;21.30;100.06
19536;HTU21D;9913;51.168;4.124;2023-08-12T09:58:33;21.45;99.83
19536;HTU21D;9913;51.168;4.124;2023-08-12T10:01:06;21.20;99.83
19536;HTU21D;9913;51.168;4.124;2023-08-12T10:03:35;20.63;101.26
19536;HTU21D;9913;51.168;4.124;2023-08-12T10:06:05;20.74;99.42
19536;HTU21D;9913;51.168;4.124;2023-08-12T10:08:35;20.83;100.57
19536;HTU21D;9913;51.168;4.124;2023-08-12T10:11:04;20.62;102.21
19536;HTU21D;9913;51.168;4.124;2023-08-12T10:13:47;20.66;99.93
19536;HTU21D;9913;51.168;4.124;2023-08-12T10:16:20;20.66;101.42
19536;HTU21D;9913;51.168;4.124;2023-08-12T10:19:00;21.19;102.18
19536;HTU21D;9913;51.168;4.124;2023-08-12T10:21:30;21.21;99.07
19536;HTU21D;9913;51.168;4.124;2023-08-12T10:23:59;21.66;100.97
19536;HTU21D;9913;51.168;4.124;2023-08-12T10:26:29;22.51;96.73
19536;HTU21D;9913;51.168;4.124;2023-08-12T10:29:04;22.68;97.53
19536;HTU21D;9913;51.168;4.124;2023-08-12T10:31:34;22.68;98.62
19536;HTU21D;9913;51.168;4.124;2023-08-12T10:34:04;22.11;99.38
19536;HTU21D;9913;51.168;4.124;2023-08-12T10:36:33;22.02;98.23
19536;HTU21D;9913;51.168;4.124;2023-08-12T10:39:15;21.54;97.75
19536;HTU21D;9913;51.168;4.124;2023-08-12T10:41:51;21.53;99.04
19536;HTU21D;9913;51.168;4.124;2023-08-12T10:44:23;21.61;98.46
19536;HTU21D;9913;51.168;4.124;2023-08-12T10:46:58;21.38;99.46
19536;HTU21D;9913;51.168;4.124;2023-08-12T10:49:39;21.66;98.69
19536;HTU21D;9913;51.168;4.124;2023-08-12T10:52:27;22.18;94.63
19536;HTU21D;9913;51.168;4.124;2023-08-12T10:55:19;22.64;96.78
19536;HTU21D;9913;51.168;4.124;2023-08-12T10:57:50;22.61;93.08
19536;HTU21D;9913;51.168;4.124;2023-08-12T11:00:24;22.87;93.76
19536;HTU21D;9913;51.168;4.124;2023-08-12T11:02:58;22.48;94.40
19536;HTU21D;9913;51.168;4.124;2023-08-12T11:05:36;22.36;98.13
19536;HTU21D;9913;51.168;4.124;2023-08-12T11:08:06;22.56;98.39
19536;HTU21D;9913;51.168;4.124;2023-08-12T11:10:35;22.37;96.38
19536;HTU21D;9913;51.168;4.124;2023-08-12T11:13:04;22.71;97.87
19536;HTU21D;9913;51.168;4.124;2023-08-12T11:15:34;22.99;97.18
19536;HTU21D;9913;51.168;4.124;2023-08-12T11:18:08;23.28;97.07
19536;HTU21D;9913;51.168;4.124;2023-08-12T11:20:38;23.31;92.15
19536;HTU21D;9913;51.168;4.124;2023-08-12T11:23:08;23.26;91.92
19536;HTU21D;9913;51.168;4.124;2023-08-12T11:25:38;23.68;93.37
19536;HTU21D;9913;51.168;4.124;2023-08-12T11:28:08;23.32;98.03
19536;HTU21D;9913;51.168;4.124;2023-08-12T11:30:40;23.58;89.68
19536;HTU21D;9913;51.168;4.124;2023-08-12T11:33:12;23.45;94.33
19536;HTU21D;9913;51.168;4.124;2023-08-12T11:35:42;22.61;94.26
19536;HTU21D;9913;51.168;4.124;2023-08-12T11:38:12;22.56;95.75
19536;HTU21D;9913;51.168;4.124;2023-08-12T11:40:41;23.10;96.68
19536;HTU21D;9913;51.168;4.124;2023-08-12T11:43:10;23.17;93.57
19536;HTU21D;9913;51.168;4.124;2023-08-12T11:45:41;23.21;93.30
19536;HTU21D;9913;51.168;4.124;2023-08-12T11:48:12;23.59;92.26
19536;HTU21D;9913;51.168;4.124;2023-08-12T11:50:43;24.08;89.23
19536;HTU21D;9913;51.168;4.124;2023-08-12T11:53:14;24.61;92.22
19536;HTU21D;9913;51.168;4.124;2023-08-12T11:55:45;24.72;90.41
19536;HTU21D;9913;51.168;4.124;2023-08-12T11:58:15;24.74;86.96
19536;HTU21D;9913;51.168;4.124;2023-08-12T12:00:46;24.64;87.03
19536;HTU21D;9913;51.168;4.124;2023-08-12T12:03:17;24.74;86.67
19536;HTU21D;9913;51.168;4.124;2023-08-12T12:05:46;24.59;83.40
19536;HTU21D;9913;51.168;4.124;2023-08-12T12:08:16;24.50;86.09
19536;HTU21D;9913;51.168;4.124;2023-08-12T12:10:45;24.78;88.09
19536;HTU21D;9913;51.168;4.124;2023-08-12T12:13:14;24.16;87.83
19536;HTU21D;9913;51.168;4.124;2023-08-12T12:15:43;23.36;89.28
19536;HTU21D;9913;51.168;4.124;2023-08-12T12:18:12;22.86;88.36
19536;HTU21D;9913;51.168;4.124;2023-08-12T12:20:54;22.48;92.69
19536;HTU21D;9913;51.168;4.124;2023-08-12T12:23:27;22.43;92.21
19536;HTU21D;9913;51.168;4.124;2023-08-12T12:25:58;22.31;93.66
19536;HTU21D;9913;51.168;4.124;2023-08-12T12:28:27;22.83;92.17
19536;HTU21D;9913;51.168;4.124;2023-08-12T12:30:57;24.00;88.56
19536;HTU21D;9913;51.168;4.124;2023-08-12T12:33:26;24.38;88.91
19536;HTU21D;9913;51.168;4.124;2023-08-12T12:36:00;24.32;86.66
19536;HTU21D;9913;51.168;4.124;2023-08-12T12:38:31;23.20;90.39
19536;HTU21D;9913;51.168;4.124;2023-08-12T12:41:00;22.50;90.34
19536;HTU21D;9913;51.168;4.124;2023-08-12T12:43:29;22.52;87.67
19536;HTU21D;9913;51.168;4.124;2023-08-12T12:45:58;23.98;85.23
19536;HTU21D;9913;51.168;4.124;2023-08-12T12:48:28;24.27;88.19
19536;HTU21D;9913;51.168;4.124;2023-08-12T12:50:57;24.18;88.56
19536;HTU21D;9913;51.168;4.124;2023-08-12T12:53:28;24.84;82.88
19536;HTU21D;9913;51.168;4.124;2023-08-12T12:55:57;25.18;82.01
19536;HTU21D;9913;51.168;4.124;2023-08-12T12:58:31;25.21;81.84
19536;HTU21D;9913;51.168;4.124;2023-08-12T13:01:03;25.59;80.87
19536;HTU21D;9913;51.168;4.124;2023-08-12T13:03:50;25.68;82.25
19536;HTU21D;9913;51.168;4.124;2023-08-12T13:06:20;25.77;83.05
19536;HTU21D;9913;51.168;4.124;2023-08-12T13:08:51;26.25;79.94
19536;HTU21D;9913;51.168;4.124;2023-08-12T13:11:22;26.03;78.46
19536;HTU21D;9913;51.168;4.124;2023-08-12T13:13:52;26.02;82.44
19536;HTU21D;9913;51.168;4.124;2023-08-12T13:16:29;26.19;76.45
19536;HTU21D;9913;51.168;4.124;2023-08-12T13:18:58;26.45;94.81
19536;HTU21D;9913;51.168;4.124;2023-08-12T13:21:27;26.35;104.30
19536;HTU21D;9913;51.168;4.124;2023-08-12T13:23:58;26.58;110.19
19536;HTU21D;9913;51.168;4.124;2023-08-12T13:26:29;26.60;109.56
19536;HTU21D;9913;51.168;4.124;2023-08-12T13:29:00;26.47;106.58
19536;HTU21D;9913;51.168;4.124;2023-08-12T13:31:29;26.07;110.81
19536;HTU21D;9913;51.168;4.124;2023-08-12T13:33:58;25.42;111.87
19536;HTU21D;9913;51.168;4.124;2023-08-12T13:36:27;25.77;111.60
19536;HTU21D;9913;51.168;4.124;2023-08-12T13:38:59;25.93;111.47
19536;HTU21D;9913;51.168;4.124;2023-08-12T13:41:28;26.36;116.01
19536;HTU21D;9913;51.168;4.124;2023-08-12T13:43:57;25.51;113.23
19536;HTU21D;9913;51.168;4.124;2023-08-12T13:46:26;24.72;116.53
19536;HTU21D;9913;51.168;4.124;2023-08-12T13:48:55;25.76;118.31
19536;HTU21D;9913;51.168;4.124;2023-08-12T13:51:24;25.96;118.04
19536;HTU21D;9913;51.168;4.124;2023-08-12T13:53:53;25.77;115.67
19536;HTU21D;9913;51.168;4.124;2023-08-12T13:56:24;25.68;116.73
19536;HTU21D;9913;51.168;4.124;2023-08-12T13:58:53;25.45;116.19
19536;HTU21D;9913;51.168;4.124;2023-08-12T14:01:21;25.50;111.72
19536;HTU21D;9913;51.168;4.124;2023-08-12T14:03:51;25.77;114.78
19536;HTU21D;9913;51.168;4.124;2023-08-12T14:06:20;26.31;113.58
19536;HTU21D;9913;51.168;4.124;2023-08-12T14:08:49;26.25;110.20
19536;HTU21D;9913;51.168;4.124;2023-08-12T14:11:18;24.78;114.03
19536;HTU21D;9913;51.168;4.124;2023-08-12T14:13:49;24.92;115.09
19536;HTU21D;9913;51.168;4.124;2023-08-12T14:16:19;25.48;111.08
19536;HTU21D;9913;51.168;4.124;2023-08-12T14:18:48;25.64;113.80
19536;HTU21D;9913;51.168;4.124;2023-08-12T14:21:19;26.52;108.91
19536;HTU21D;9913;51.168;4.124;2023-08-12T14:23:48;26.71;104.62
19536;HTU21D;9913;51.168;4.124;2023-08-12T14:26:17;27.19;113.11
19536;HTU21D;9913;51.168;4.124;2023-08-12T14:28:48;27.42;109.90
19536;HTU21D;9913;51.168;4.124;2023-08-12T14:31:17;27.50;110.29
19536;HTU21D;9913;51.168;4.124;2023-08-12T14:33:46;26.99;105.89
19536;HTU21D;9913;51.168;4.124;2023-08-12T14:36:15;26.18;107.83
19536;HTU21D;9913;51.168;4.124;2023-08-12T14:38:44;25.17;108.02
19536;HTU21D;9913;51.168;4.124;2023-08-12T14:41:13;25.89;112.03
19536;HTU21D;9913;51.168;4.124;2023-08-12T14:43:42;26.27;110.96
19536;HTU21D;9913;51.168;4.124;2023-08-12T14:46:12;27.72;107.13
19536;HTU21D;9913;51.168;4.124;2023-08-12T14:48:41;28.00;102.25
19536;HTU21D;9913;51.168;4.124;2023-08-12T14:51:10;28.04;99.90
19536;HTU21D;9913;51.168;4.124;2023-08-12T14:53:39;27.32;107.06
19536;HTU21D;9913;51.168;4.124;2023-08-12T14:56:08;28.33;106.18
19536;HTU21D;9913;51.168;4.124;2023-08-12T14:58:37;29.35;100.19
19536;HTU21D;9913;51.168;4.124;2023-08-12T15:01:06;29.37;99.03
19536;HTU21D;9913;51.168;4.124;2023-08-12T15:03:37;29.77;98.03
19536;HTU21D;9913;51.168;4.124;2023-08-12T15:06:08;29.21;95.15
19536;HTU21D;9913;51.168;4.124;2023-08-12T15:08:38;29.08;99.87
19536;HTU21D;9913;51.168;4.124;2023-08-12T15:11:08;28.74;93.63
19536;HTU21D;9913;51.168;4.124;2023-08-12T15:13:39;27.84;101.67
19536;HTU21D;9913;51.168;4.124;2023-08-12T15:16:08;29.51;89.21
19536;HTU21D;9913;51.168;4.124;2023-08-12T15:18:40;29.81;93.43
19536;HTU21D;9913;51.168;4.124;2023-08-12T15:21:11;28.45;97.94
19536;HTU21D;9913;51.168;4.124;2023-08-12T15:23:40;27.30;98.74
19536;HTU21D;9913;51.168;4.124;2023-08-12T15:26:12;26.85;103.03
19536;HTU21D;9913;51.168;4.124;2023-08-12T15:28:41;28.18;98.52
19536;HTU21D;9913;51.168;4.124;2023-08-12T15:31:11;28.91;97.42
19536;HTU21D;9913;51.168;4.124;2023-08-12T15:33:44;29.60;97.02
19536;HTU21D;9913;51.168;4.124;2023-08-12T15:36:14;29.08;94.03
19536;HTU21D;9913;51.168;4.124;2023-08-12T15:38:46;30.13;91.55
19536;HTU21D;9913;51.168;4.124;2023-08-12T15:41:16;30.36;95.23